createdAt,value
2018-03-26T12:54:45.333Z,11.80
2018-03-26T13:00:26.446Z,12.30
2018-03-26T13:03:12.773Z,12.40
2018-03-26T13:06:08.573Z,12.60
2018-03-26T13:11:47.714Z,12.50
2018-03-26T13:14:18.015Z,12.70
2018-03-26T13:16:50.337Z,12.90
2018-03-26T13:19:21.684Z,12.90
2018-03-26T13:21:53.968Z,12.60
2018-03-26T13:24:25.053Z,12.60
2018-03-26T13:27:09.175Z,13.10
2018-03-26T13:29:37.492Z,12.60
2018-03-26T13:32:10.185Z,13.10
2018-03-26T13:35:12.486Z,12.20
2018-03-26T13:40:50.524Z,12.30
2018-03-26T13:43:20.222Z,12.60
2018-03-26T13:45:47.224Z,12.70
2018-03-26T13:48:16.279Z,13.00
2018-03-26T13:50:44.639Z,12.70
2018-03-26T13:53:11.846Z,12.70
2018-03-26T13:55:39.332Z,12.50
2018-03-26T13:58:07.531Z,12.30
2018-03-26T14:03:31.640Z,12.60
2018-03-26T14:05:59.766Z,12.20
2018-03-26T14:08:46.160Z,12.10
2018-03-26T14:11:31.161Z,11.70
2018-03-26T14:14:16.557Z,11.60
2018-03-26T14:17:03.018Z,11.80
2018-03-26T14:19:39.475Z,11.90
2018-03-26T14:22:06.729Z,12.10
2018-03-26T14:24:34.613Z,11.90
2018-03-26T14:27:03.910Z,11.80
2018-03-26T14:29:32.736Z,11.90
2018-03-26T14:32:03.229Z,12.10
2018-03-26T14:34:46.699Z,12.00
2018-03-26T14:40:30.885Z,12.30
2018-03-26T14:43:02.763Z,11.60
2018-03-26T14:48:10.203Z,12.00
2018-03-26T15:17:16.601Z,11.60
2018-03-26T15:19:43.573Z,11.50
2018-03-26T15:22:10.677Z,11.40
2018-03-26T15:24:37.637Z,11.10
2018-03-26T15:27:13.849Z,11.00
2018-03-26T15:29:41.990Z,10.90
2018-03-26T15:32:28.275Z,10.80
2018-03-26T15:35:01.076Z,10.90
2018-03-26T15:37:28.795Z,10.70
2018-03-26T15:40:33.508Z,10.90
2018-03-26T15:43:03.901Z,10.80
2018-03-26T15:45:33.402Z,10.70
2018-03-26T15:48:04.035Z,10.70
2018-03-26T15:50:31.116Z,10.60
2018-03-26T15:52:58.294Z,10.90
2018-03-26T15:55:26.670Z,10.70
2018-03-26T15:57:54.760Z,10.90
2018-03-26T16:00:21.812Z,10.80
2018-03-26T16:02:54.821Z,10.70
2018-03-26T16:05:22.190Z,10.60
2018-03-26T16:07:52.378Z,10.60
2018-03-26T16:10:20.387Z,10.40
2018-03-26T16:12:51.183Z,10.50
2018-03-26T16:15:21.453Z,10.60
2018-03-26T16:17:49.387Z,10.70
2018-03-26T16:20:17.592Z,10.60
2018-03-26T16:22:44.600Z,10.50
2018-03-26T16:25:12.210Z,10.30
2018-03-26T16:27:39.514Z,10.20
2018-03-26T16:30:11.879Z,10.20
2018-03-26T16:32:39.976Z,10.10
2018-03-26T17:14:34.018Z,9.80
2018-03-26T17:17:05.763Z,9.80
2018-03-26T17:19:36.616Z,9.80
2018-03-26T17:22:11.001Z,9.70
2018-03-26T17:24:39.975Z,9.70
2018-03-26T17:27:10.729Z,9.50
2018-03-26T17:29:41.043Z,9.40
2018-03-26T17:32:12.896Z,9.50
2018-03-26T17:34:44.069Z,9.20
2018-03-26T17:37:16.971Z,9.20
2018-03-26T17:39:45.704Z,9.10
2018-03-26T17:42:29.569Z,9.10
2018-03-26T17:44:58.300Z,9.00
2018-03-26T17:47:27.261Z,9.00
2018-03-26T17:49:56.246Z,8.90
2018-03-26T17:52:26.599Z,8.90
2018-03-26T17:54:55.449Z,8.80
2018-03-26T17:57:24.269Z,8.80
2018-03-26T17:59:53.134Z,8.80
2018-03-26T18:02:21.773Z,8.80
2018-03-26T18:04:51.338Z,8.60
2018-03-26T18:07:20.191Z,8.60
2018-03-26T19:06:38.340Z,8.40
2018-03-26T19:11:50.744Z,7.70
2018-03-26T19:15:03.903Z,7.80
2018-03-26T19:17:41.746Z,7.70
2018-03-26T19:20:14.332Z,7.60
2018-03-26T19:23:03.301Z,7.40
2018-03-26T19:26:00.497Z,7.30
2018-03-26T19:31:50.038Z,8.00
2018-03-26T19:34:33.963Z,7.50
2018-03-26T19:38:54.743Z,7.30
2018-03-26T19:41:37.013Z,7.30
2018-03-26T19:44:11.903Z,7.90
2018-03-26T19:46:50.511Z,7.90
2018-03-26T19:49:31.491Z,8.00
2018-03-26T19:52:11.272Z,8.10
2018-03-26T19:54:41.677Z,8.20
2018-03-26T19:57:27.529Z,8.20
2018-03-26T20:00:02.459Z,8.20
2018-03-26T20:03:03.703Z,8.20
2018-03-26T20:05:42.369Z,8.20
2018-03-26T21:18:17.131Z,5.70
2018-03-26T21:21:02.260Z,6.20
2018-03-26T21:23:40.382Z,6.90
2018-03-26T21:27:24.729Z,6.90
2018-03-26T21:33:11.593Z,7.20
